sensor_id;sensor_type;location;lat;lon;timestamp;temperature;humidity
50804;DHT22;37205;51.434;6.756;2023-11-19T00:02:15;10.90;99.90
50804;DHT22;37205;51.434;6.756;2023-11-19T00:04:41;10.90;99.90
50804;DHT22;37205;51.434;6.756;2023-11-19T00:07:07;11.00;99.90
50804;DHT22;37205;51.434;6.756;2023-11-19T00:09:33;11.00;99.90
50804;DHT22;37205;51.434;6.756;2023-11-19T00:12:02;11.10;99.90
50804;DHT22;37205;51.434;6.756;2023-11-19T00:14:28;11.20;99.90
50804;DHT22;37205;51.434;6.756;2023-11-19T00:16:54;11.20;99.90
50804;DHT22;37205;51.434;6.756;2023-11-19T00:19:20;11.30;99.90
50804;DHT22;37205;51.434;6.756;2023-11-19T00:21:45;11.30;99.90
50804;DHT22;37205;51.434;6.756;2023-11-19T00:24:11;11.50;99.90
50804;DHT22;37205;51.434;6.756;2023-11-19T00:26:38;11.60;99.90
50804;DHT22;37205;51.434;6.756;2023-11-19T00:29:04;11.70;99.90
50804;DHT22;37205;51.434;6.756;2023-11-19T00:31:29;11.90;99.90
50804;DHT22;37205;51.434;6.756;2023-11-19T00:33:55;11.90;99.90
50804;DHT22;37205;51.434;6.756;2023-11-19T00:36:20;12.00;99.90
50804;DHT22;37205;51.434;6.756;2023-11-19T00:38:46;12.10;99.90
50804;DHT22;37205;51.434;6.756;2023-11-19T00:41:12;12.10;99.90
50804;DHT22;37205;51.434;6.756;2023-11-19T00:43:37;12.20;99.90
50804;DHT22;37205;51.434;6.756;2023-11-19T00:46:06;12.30;99.90
50804;DHT22;37205;51.434;6.756;2023-11-19T00:48:32;12.40;99.90
50804;DHT22;37205;51.434;6.756;2023-11-19T00:50:57;12.40;99.90
50804;DHT22;37205;51.434;6.756;2023-11-19T00:53:23;12.50;99.90
50804;DHT22;37205;51.434;6.756;2023-11-19T00:55:48;12.50;99.90
50804;DHT22;37205;51.434;6.756;2023-11-19T00:58:14;12.40;99.90
50804;DHT22;37205;51.434;6.756;2023-11-19T01:00:39;12.50;99.90
50804;DHT22;37205;51.434;6.756;2023-11-19T01:03:05;12.50;99.90
50804;DHT22;37205;51.434;6.756;2023-11-19T01:05:32;12.50;99.90
50804;DHT22;37205;51.434;6.756;2023-11-19T01:07:58;12.50;99.90
50804;DHT22;37205;51.434;6.756;2023-11-19T01:10:24;12.60;99.90
50804;DHT22;37205;51.434;6.756;2023-11-19T01:12:51;12.50;99.90
50804;DHT22;37205;51.434;6.756;2023-11-19T01:15:17;12.50;99.90
50804;DHT22;37205;51.434;6.756;2023-11-19T01:17:44;12.60;99.90
50804;DHT22;37205;51.434;6.756;2023-11-19T01:20:10;12.60;99.90
50804;DHT22;37205;51.434;6.756;2023-11-19T01:22:38;12.60;99.90
50804;DHT22;37205;51.434;6.756;2023-11-19T01:25:04;12.50;99.90
50804;DHT22;37205;51.434;6.756;2023-11-19T01:27:31;12.60;99.90
50804;DHT22;37205;51.434;6.756;2023-11-19T01:29:56;12.60;99.90
50804;DHT22;37205;51.434;6.756;2023-11-19T01:32:22;12.70;99.90
50804;DHT22;37205;51.434;6.756;2023-11-19T01:34:49;12.60;99.90
50804;DHT22;37205;51.434;6.756;2023-11-19T01:37:15;12.70;99.90
50804;DHT22;37205;51.434;6.756;2023-11-19T01:39:43;12.60;99.90
50804;DHT22;37205;51.434;6.756;2023-11-19T01:42:09;12.70;99.90
50804;DHT22;37205;51.434;6.756;2023-11-19T01:44:34;12.80;99.90
50804;DHT22;37205;51.434;6.756;2023-11-19T01:47:00;12.70;99.90
50804;DHT22;37205;51.434;6.756;2023-11-19T01:49:26;12.80;99.90
50804;DHT22;37205;51.434;6.756;2023-11-19T01:51:51;12.80;99.90
50804;DHT22;37205;51.434;6.756;2023-11-19T01:54:17;12.80;99.90
50804;DHT22;37205;51.434;6.756;2023-11-19T01:56:43;12.80;99.90
50804;DHT22;37205;51.434;6.756;2023-11-19T01:59:10;12.80;99.90
50804;DHT22;37205;51.434;6.756;2023-11-19T02:01:36;12.80;99.90
50804;DHT22;37205;51.434;6.756;2023-11-19T02:04:08;12.80;99.90
50804;DHT22;37205;51.434;6.756;2023-11-19T02:06:34;12.90;99.90
50804;DHT22;37205;51.434;6.756;2023-11-19T02:09:03;12.80;99.90
50804;DHT22;37205;51.434;6.756;2023-11-19T02:11:33;12.80;99.90
50804;DHT22;37205;51.434;6.756;2023-11-19T02:14:00;12.90;99.90
50804;DHT22;37205;51.434;6.756;2023-11-19T02:16:26;12.90;99.90
50804;DHT22;37205;51.434;6.756;2023-11-19T02:18:51;12.80;99.90
50804;DHT22;37205;51.434;6.756;2023-11-19T02:21:17;12.80;99.90
50804;DHT22;37205;51.434;6.756;2023-11-19T02:23:43;12.80;99.90
50804;DHT22;37205;51.434;6.756;2023-11-19T02:28:49;12.90;99.90
50804;DHT22;37205;51.434;6.756;2023-11-19T02:31:15;12.90;99.90
50804;DHT22;37205;51.434;6.756;2023-11-19T02:33:41;12.90;99.90
50804;DHT22;37205;51.434;6.756;2023-11-19T02:36:07;12.90;99.90
50804;DHT22;37205;51.434;6.756;2023-11-19T02:38:34;12.90;99.90
50804;DHT22;37205;51.434;6.756;2023-11-19T02:41:02;12.90;99.90
50804;DHT22;37205;51.434;6.756;2023-11-19T02:43:30;12.90;99.90
50804;DHT22;37205;51.434;6.756;2023-11-19T02:45:57;13.00;99.90
50804;DHT22;37205;51.434;6.756;2023-11-19T02:48:22;12.90;99.90
50804;DHT22;37205;51.434;6.756;2023-11-19T02:50:48;13.00;99.90
50804;DHT22;37205;51.434;6.756;2023-11-19T02:53:13;12.90;99.90
50804;DHT22;37205;51.434;6.756;2023-11-19T02:55:39;13.00;99.90
50804;DHT22;37205;51.434;6.756;2023-11-19T02:58:06;13.00;99.90
50804;DHT22;37205;51.434;6.756;2023-11-19T03:00:46;13.00;99.90
50804;DHT22;37205;51.434;6.756;2023-11-19T03:03:17;13.00;99.90
50804;DHT22;37205;51.434;6.756;2023-11-19T03:05:46;13.00;99.90
50804;DHT22;37205;51.434;6.756;2023-11-19T03:08:12;13.10;99.90
50804;DHT22;37205;51.434;6.756;2023-11-19T03:10:38;13.00;99.90
50804;DHT22;37205;51.434;6.756;2023-11-19T03:13:04;13.00;99.90
50804;DHT22;37205;51.434;6.756;2023-11-19T03:15:30;13.00;99.90
50804;DHT22;37205;51.434;6.756;2023-11-19T03:17:55;13.00;99.90
50804;DHT22;37205;51.434;6.756;2023-11-19T03:20:21;13.00;99.90
50804;DHT22;37205;51.434;6.756;2023-11-19T03:22:48;12.90;99.90
50804;DHT22;37205;51.434;6.756;2023-11-19T03:25:16;12.90;99.90
50804;DHT22;37205;51.434;6.756;2023-11-19T03:27:41;12.90;99.90
50804;DHT22;37205;51.434;6.756;2023-11-19T03:30:11;12.80;99.90
50804;DHT22;37205;51.434;6.756;2023-11-19T03:32:37;12.80;99.90
50804;DHT22;37205;51.434;6.756;2023-11-19T03:35:04;12.70;99.90
50804;DHT22;37205;51.434;6.756;2023-11-19T03:37:32;12.70;99.90
50804;DHT22;37205;51.434;6.756;2023-11-19T03:39:58;12.70;99.90
50804;DHT22;37205;51.434;6.756;2023-11-19T03:42:26;12.70;99.90
50804;DHT22;37205;51.434;6.756;2023-11-19T03:44:52;12.60;99.90
50804;DHT22;37205;51.434;6.756;2023-11-19T03:47:18;12.50;99.90
50804;DHT22;37205;51.434;6.756;2023-11-19T03:49:48;12.50;99.90
50804;DHT22;37205;51.434;6.756;2023-11-19T03:52:14;12.50;99.90
50804;DHT22;37205;51.434;6.756;2023-11-19T03:54:39;12.40;99.90
50804;DHT22;37205;51.434;6.756;2023-11-19T03:57:05;12.50;99.90
50804;DHT22;37205;51.434;6.756;2023-11-19T03:59:31;12.40;99.90
50804;DHT22;37205;51.434;6.756;2023-11-19T04:01:56;12.40;99.90
50804;DHT22;37205;51.434;6.756;2023-11-19T04:04:22;12.40;99.90
50804;DHT22;37205;51.434;6.756;2023-11-19T04:06:48;12.30;99.90
50804;DHT22;37205;51.434;6.756;2023-11-19T04:09:13;12.30;99.90
50804;DHT22;37205;51.434;6.756;2023-11-19T04:11:39;12.30;99.90
50804;DHT22;37205;51.434;6.756;2023-11-19T04:14:05;12.30;99.90
50804;DHT22;37205;51.434;6.756;2023-11-19T04:16:31;12.30;99.90
50804;DHT22;37205;51.434;6.756;2023-11-19T04:18:56;12.40;99.90
50804;DHT22;37205;51.434;6.756;2023-11-19T04:21:22;12.30;99.90
50804;DHT22;37205;51.434;6.756;2023-11-19T04:23:49;12.40;99.90
50804;DHT22;37205;51.434;6.756;2023-11-19T04:26:15;12.40;99.90
50804;DHT22;37205;51.434;6.756;2023-11-19T04:28:41;12.40;99.90
50804;DHT22;37205;51.434;6.756;2023-11-19T04:31:06;12.50;99.90
50804;DHT22;37205;51.434;6.756;2023-11-19T04:33:32;12.60;99.90
50804;DHT22;37205;51.434;6.756;2023-11-19T04:35:57;12.50;99.90
50804;DHT22;37205;51.434;6.756;2023-11-19T04:38:23;12.40;99.90
50804;DHT22;37205;51.434;6.756;2023-11-19T04:40:49;12.40;99.90
50804;DHT22;37205;51.434;6.756;2023-11-19T04:43:14;12.50;99.90
50804;DHT22;37205;51.434;6.756;2023-11-19T04:45:41;12.50;99.90
50804;DHT22;37205;51.434;6.756;2023-11-19T04:48:06;12.40;99.90
50804;DHT22;37205;51.434;6.756;2023-11-19T04:50:32;12.40;99.90
50804;DHT22;37205;51.434;6.756;2023-11-19T04:52:57;12.30;99.90
50804;DHT22;37205;51.434;6.756;2023-11-19T04:55:23;12.30;99.90
50804;DHT22;37205;51.434;6.756;2023-11-19T04:57:48;12.40;99.90
50804;DHT22;37205;51.434;6.756;2023-11-19T05:00:14;12.40;99.90
50804;DHT22;37205;51.434;6.756;2023-11-19T05:02:40;12.40;99.90
50804;DHT22;37205;51.434;6.756;2023-11-19T05:05:05;12.40;99.90
50804;DHT22;37205;51.434;6.756;2023-11-19T05:07:31;12.40;99.90
50804;DHT22;37205;51.434;6.756;2023-11-19T05:09:57;12.40;99.90
50804;DHT22;37205;51.434;6.756;2023-11-19T05:12:23;12.40;99.90
50804;DHT22;37205;51.434;6.756;2023-11-19T05:14:49;12.40;99.90
50804;DHT22;37205;51.434;6.756;2023-11-19T05:17:18;12.40;99.90
50804;DHT22;37205;51.434;6.756;2023-11-19T05:19:45;12.40;99.90
50804;DHT22;37205;51.434;6.756;2023-11-19T05:22:10;12.40;99.90
50804;DHT22;37205;51.434;6.756;2023-11-19T05:24:36;12.50;99.90
50804;DHT22;37205;51.434;6.756;2023-11-19T05:27:02;12.50;99.90
50804;DHT22;37205;51.434;6.756;2023-11-19T05:29:27;12.40;99.90
50804;DHT22;37205;51.434;6.756;2023-11-19T05:31:53;12.50;99.90
50804;DHT22;37205;51.434;6.756;2023-11-19T05:34:20;12.60;99.90
50804;DHT22;37205;51.434;6.756;2023-11-19T05:36:46;12.60;99.90
50804;DHT22;37205;51.434;6.756;2023-11-19T05:39:12;12.60;99.90
50804;DHT22;37205;51.434;6.756;2023-11-19T05:41:37;12.60;99.90
50804;DHT22;37205;51.434;6.756;2023-11-19T05:44:03;12.60;99.90
50804;DHT22;37205;51.434;6.756;2023-11-19T05:46:29;12.60;99.90
50804;DHT22;37205;51.434;6.756;2023-11-19T05:48:54;12.40;99.90
50804;DHT22;37205;51.434;6.756;2023-11-19T05:51:20;12.40;99.90
50804;DHT22;37205;51.434;6.756;2023-11-19T05:53:45;12.30;99.90
50804;DHT22;37205;51.434;6.756;2023-11-19T05:56:11;12.40;99.90
50804;DHT22;37205;51.434;6.756;2023-11-19T05:58:37;12.30;99.90
50804;DHT22;37205;51.434;6.756;2023-11-19T06:01:05;12.30;99.90
50804;DHT22;37205;51.434;6.756;2023-11-19T06:03:32;12.20;99.90
50804;DHT22;37205;51.434;6.756;2023-11-19T06:05:58;12.30;99.90
50804;DHT22;37205;51.434;6.756;2023-11-19T06:08:24;12.20;99.90
50804;DHT22;37205;51.434;6.756;2023-11-19T06:10:49;12.20;99.90
50804;DHT22;37205;51.434;6.756;2023-11-19T06:13:16;12.20;99.90
50804;DHT22;37205;51.434;6.756;2023-11-19T06:15:42;12.20;99.90
50804;DHT22;37205;51.434;6.756;2023-11-19T06:18:08;12.20;99.90
50804;DHT22;37205;51.434;6.756;2023-11-19T06:20:34;12.10;99.90
50804;DHT22;37205;51.434;6.756;2023-11-19T06:23:00;12.00;99.90
50804;DHT22;37205;51.434;6.756;2023-11-19T06:25:26;12.00;99.90
50804;DHT22;37205;51.434;6.756;2023-11-19T06:27:52;12.10;99.90
50804;DHT22;37205;51.434;6.756;2023-11-19T06:30:18;12.00;99.90
50804;DHT22;37205;51.434;6.756;2023-11-19T06:32:44;12.00;99.90
50804;DHT22;37205;51.434;6.756;2023-11-19T06:35:10;12.00;99.90
50804;DHT22;37205;51.434;6.756;2023-11-19T06:37:36;12.00;99.90
50804;DHT22;37205;51.434;6.756;2023-11-19T06:40:04;12.00;99.90
50804;DHT22;37205;51.434;6.756;2023-11-19T06:42:30;12.00;99.90
50804;DHT22;37205;51.434;6.756;2023-11-19T06:44:56;12.00;99.90
50804;DHT22;37205;51.434;6.756;2023-11-19T06:47:25;12.10;99.90
50804;DHT22;37205;51.434;6.756;2023-11-19T06:49:51;12.00;99.90
50804;DHT22;37205;51.434;6.756;2023-11-19T06:52:17;12.00;99.90
50804;DHT22;37205;51.434;6.756;2023-11-19T06:54:42;12.00;99.90
50804;DHT22;37205;51.434;6.756;2023-11-19T06:57:08;12.00;99.90
50804;DHT22;37205;51.434;6.756;2023-11-19T06:59:34;11.90;99.90
50804;DHT22;37205;51.434;6.756;2023-11-19T07:02:00;12.00;99.90
50804;DHT22;37205;51.434;6.756;2023-11-19T07:04:25;11.90;99.90
50804;DHT22;37205;51.434;6.756;2023-11-19T07:06:51;11.90;99.90
50804;DHT22;37205;51.434;6.756;2023-11-19T07:09:18;11.80;99.90
50804;DHT22;37205;51.434;6.756;2023-11-19T07:11:44;11.80;99.90
50804;DHT22;37205;51.434;6.756;2023-11-19T07:14:11;11.70;99.90
50804;DHT22;37205;51.434;6.756;2023-11-19T07:16:38;11.80;99.90
50804;DHT22;37205;51.434;6.756;2023-11-19T07:19:05;11.80;99.90
50804;DHT22;37205;51.434;6.756;2023-11-19T07:21:30;11.80;99.90
50804;DHT22;37205;51.434;6.756;2023-11-19T07:23:56;11.70;99.90
50804;DHT22;37205;51.434;6.756;2023-11-19T07:26:22;11.70;99.90
50804;DHT22;37205;51.434;6.756;2023-11-19T07:28:51;11.70;99.90
50804;DHT22;37205;51.434;6.756;2023-11-19T07:31:17;11.70;99.90
50804;DHT22;37205;51.434;6.756;2023-11-19T07:33:46;11.70;99.90
50804;DHT22;37205;51.434;6.756;2023-11-19T07:36:13;11.70;99.90
50804;DHT22;37205;51.434;6.756;2023-11-19T07:38:38;11.70;99.90
50804;DHT22;37205;51.434;6.756;2023-11-19T07:41:05;11.70;99.90
50804;DHT22;37205;51.434;6.756;2023-11-19T07:43:31;11.70;99.90
50804;DHT22;37205;51.434;6.756;2023-11-19T07:45:56;11.70;99.90
50804;DHT22;37205;51.434;6.756;2023-11-19T07:48:24;11.70;99.90
50804;DHT22;37205;51.434;6.756;2023-11-19T07:50:50;11.70;99.90
50804;DHT22;37205;51.434;6.756;2023-11-19T07:53:16;11.70;99.90
50804;DHT22;37205;51.434;6.756;2023-11-19T07:55:42;11.70;99.90
50804;DHT22;37205;51.434;6.756;2023-11-19T07:58:07;11.70;99.90
50804;DHT22;37205;51.434;6.756;2023-11-19T08:00:33;11.80;99.90
50804;DHT22;37205;51.434;6.756;2023-11-19T08:03:00;11.70;99.90
50804;DHT22;37205;51.434;6.756;2023-11-19T08:05:25;11.70;99.90
50804;DHT22;37205;51.434;6.756;2023-11-19T08:07:51;11.70;99.90
50804;DHT22;37205;51.434;6.756;2023-11-19T08:10:19;11.80;99.90
50804;DHT22;37205;51.434;6.756;2023-11-19T08:12:44;11.70;99.90
50804;DHT22;37205;51.434;6.756;2023-11-19T08:15:10;11.80;99.90
50804;DHT22;37205;51.434;6.756;2023-11-19T08:17:36;11.80;99.90
50804;DHT22;37205;51.434;6.756;2023-11-19T08:20:02;11.80;99.90
50804;DHT22;37205;51.434;6.756;2023-11-19T08:22:28;11.90;99.90
50804;DHT22;37205;51.434;6.756;2023-11-19T08:24:54;11.90;99.90
50804;DHT22;37205;51.434;6.756;2023-11-19T08:27:19;12.00;99.90
50804;DHT22;37205;51.434;6.756;2023-11-19T08:29:54;12.00;99.90
50804;DHT22;37205;51.434;6.756;2023-11-19T08:32:26;12.10;99.90
50804;DHT22;37205;51.434;6.756;2023-11-19T08:34:52;12.20;99.90
50804;DHT22;37205;51.434;6.756;2023-11-19T08:37:18;12.10;99.90
50804;DHT22;37205;51.434;6.756;2023-11-19T08:39:46;12.20;99.90
50804;DHT22;37205;51.434;6.756;2023-11-19T08:42:12;12.20;99.90
50804;DHT22;37205;51.434;6.756;2023-11-19T08:44:38;12.20;99.90
50804;DHT22;37205;51.434;6.756;2023-11-19T08:47:03;12.10;99.90
50804;DHT22;37205;51.434;6.756;2023-11-19T08:49:29;12.10;99.90
50804;DHT22;37205;51.434;6.756;2023-11-19T08:51:55;12.20;99.90
50804;DHT22;37205;51.434;6.756;2023-11-19T08:54:20;12.20;99.90
50804;DHT22;37205;51.434;6.756;2023-11-19T08:56:48;12.20;99.90
50804;DHT22;37205;51.434;6.756;2023-11-19T08:59:13;12.20;99.90
50804;DHT22;37205;51.434;6.756;2023-11-19T09:01:40;12.30;99.90
50804;DHT22;37205;51.434;6.756;2023-11-19T09:04:06;12.40;99.90
50804;DHT22;37205;51.434;6.756;2023-11-19T09:06:32;12.50;99.90
50804;DHT22;37205;51.434;6.756;2023-11-19T09:08:57;12.50;99.90
50804;DHT22;37205;51.434;6.756;2023-11-19T09:11:27;12.50;99.90
50804;DHT22;37205;51.434;6.756;2023-11-19T09:13:52;12.50;99.90
50804;DHT22;37205;51.434;6.756;2023-11-19T09:16:18;12.60;99.90
50804;DHT22;37205;51.434;6.756;2023-11-19T09:18:43;12.70;99.90
50804;DHT22;37205;51.434;6.756;2023-11-19T09:21:11;12.70;99.90
50804;DHT22;37205;51.434;6.756;2023-11-19T09:23:36;12.70;99.90
50804;DHT22;37205;51.434;6.756;2023-11-19T09:26:05;12.80;99.90
50804;DHT22;37205;51.434;6.756;2023-11-19T09:28:31;12.90;99.90
50804;DHT22;37205;51.434;6.756;2023-11-19T09:30:57;12.90;99.90
50804;DHT22;37205;51.434;6.756;2023-11-19T09:33:24;12.90;99.90
50804;DHT22;37205;51.434;6.756;2023-11-19T09:35:50;13.00;99.90
50804;DHT22;37205;51.434;6.756;2023-11-19T09:38:16;13.00;99.90
50804;DHT22;37205;51.434;6.756;2023-11-19T09:40:42;13.00;99.90
50804;DHT22;37205;51.434;6.756;2023-11-19T09:43:08;13.00;99.90
50804;DHT22;37205;51.434;6.756;2023-11-19T09:45:50;13.00;99.90
50804;DHT22;37205;51.434;6.756;2023-11-19T09:48:19;13.10;99.90
50804;DHT22;37205;51.434;6.756;2023-11-19T09:50:48;13.20;99.90
50804;DHT22;37205;51.434;6.756;2023-11-19T09:53:14;13.20;99.90
50804;DHT22;37205;51.434;6.756;2023-11-19T09:55:41;13.30;99.90
50804;DHT22;37205;51.434;6.756;2023-11-19T09:58:07;13.30;99.90
50804;DHT22;37205;51.434;6.756;2023-11-19T10:00:34;13.30;99.90
50804;DHT22;37205;51.434;6.756;2023-11-19T10:03:00;13.30;99.90
50804;DHT22;37205;51.434;6.756;2023-11-19T10:05:26;13.40;99.90
50804;DHT22;37205;51.434;6.756;2023-11-19T10:07:52;13.40;99.90
50804;DHT22;37205;51.434;6.756;2023-11-19T10:10:18;13.50;99.90
50804;DHT22;37205;51.434;6.756;2023-11-19T10:12:47;13.50;99.90
50804;DHT22;37205;51.434;6.756;2023-11-19T10:15:23;13.50;99.90
50804;DHT22;37205;51.434;6.756;2023-11-19T10:17:58;13.50;99.90
50804;DHT22;37205;51.434;6.756;2023-11-19T10:20:24;13.40;99.90
50804;DHT22;37205;51.434;6.756;2023-11-19T10:22:55;13.50;99.90
50804;DHT22;37205;51.434;6.756;2023-11-19T10:25:22;13.50;99.90
50804;DHT22;37205;51.434;6.756;2023-11-19T10:27:48;13.40;99.90
50804;DHT22;37205;51.434;6.756;2023-11-19T10:30:24;13.40;99.90
50804;DHT22;37205;51.434;6.756;2023-11-19T10:33:09;13.50;99.90
50804;DHT22;37205;51.434;6.756;2023-11-19T10:35:50;13.60;99.90
50804;DHT22;37205;51.434;6.756;2023-11-19T10:38:17;13.70;99.90
50804;DHT22;37205;51.434;6.756;2023-11-19T10:40:43;13.80;99.90
50804;DHT22;37205;51.434;6.756;2023-11-19T10:43:08;13.90;99.70
50804;DHT22;37205;51.434;6.756;2023-11-19T10:45:35;14.00;94.90
50804;DHT22;37205;51.434;6.756;2023-11-19T10:48:02;14.10;88.90
50804;DHT22;37205;51.434;6.756;2023-11-19T10:50:31;14.10;70.00
50804;DHT22;37205;51.434;6.756;2023-11-19T10:52:57;14.10;60.00
50804;DHT22;37205;51.434;6.756;2023-11-19T10:55:31;14.10;56.30
50804;DHT22;37205;51.434;6.756;2023-11-19T10:58:01;14.00;51.70
50804;DHT22;37205;51.434;6.756;2023-11-19T11:00:34;14.10;62.60
50804;DHT22;37205;51.434;6.756;2023-11-19T11:03:10;14.10;59.20
50804;DHT22;37205;51.434;6.756;2023-11-19T11:05:37;14.10;29.80
50804;DHT22;37205;51.434;6.756;2023-11-19T11:08:06;14.20;36.30
50804;DHT22;37205;51.434;6.756;2023-11-19T11:10:36;14.30;26.80
50804;DHT22;37205;51.434;6.756;2023-11-19T11:13:05;14.20;28.40
50804;DHT22;37205;51.434;6.756;2023-11-19T11:15:31;14.30;21.30
50804;DHT22;37205;51.434;6.756;2023-11-19T11:18:01;14.30;17.40
50804;DHT22;37205;51.434;6.756;2023-11-19T11:20:31;14.30;13.90
50804;DHT22;37205;51.434;6.756;2023-11-19T11:29:03;14.10;15.60
50804;DHT22;37205;51.434;6.756;2023-11-19T11:31:41;14.20;30.80
50804;DHT22;37205;51.434;6.756;2023-11-19T11:37:15;14.10;43.00
50804;DHT22;37205;51.434;6.756;2023-11-19T11:39:43;14.00;17.40
50804;DHT22;37205;51.434;6.756;2023-11-19T11:45:03;14.10;22.80
50804;DHT22;37205;51.434;6.756;2023-11-19T11:55:27;13.90;36.40
50804;DHT22;37205;51.434;6.756;2023-11-19T11:57:57;14.00;12.60
50804;DHT22;37205;51.434;6.756;2023-11-19T12:00:32;14.00;9.80
50804;DHT22;37205;51.434;6.756;2023-11-19T12:03:02;14.00;1.00
50804;DHT22;37205;51.434;6.756;2023-11-19T12:05:30;14.10;22.50
50804;DHT22;37205;51.434;6.756;2023-11-19T12:08:03;14.10;14.40
50804;DHT22;37205;51.434;6.756;2023-11-19T12:10:31;14.20;1.00
50804;DHT22;37205;51.434;6.756;2023-11-19T12:13:01;14.30;1.00
50804;DHT22;37205;51.434;6.756;2023-11-19T12:15:27;14.40;1.00
50804;DHT22;37205;51.434;6.756;2023-11-19T12:17:54;14.40;1.00
50804;DHT22;37205;51.434;6.756;2023-11-19T12:20:22;14.40;1.00
50804;DHT22;37205;51.434;6.756;2023-11-19T12:22:48;14.30;1.00
50804;DHT22;37205;51.434;6.756;2023-11-19T12:25:15;14.40;1.00
50804;DHT22;37205;51.434;6.756;2023-11-19T12:27:46;14.40;5.70
50804;DHT22;37205;51.434;6.756;2023-11-19T12:30:12;14.50;1.00
50804;DHT22;37205;51.434;6.756;2023-11-19T12:32:46;14.50;1.00
50804;DHT22;37205;51.434;6.756;2023-11-19T12:35:12;14.40;1.00
50804;DHT22;37205;51.434;6.756;2023-11-19T12:37:41;14.10;41.70
50804;DHT22;37205;51.434;6.756;2023-11-19T12:40:18;13.80;97.30
50804;DHT22;37205;51.434;6.756;2023-11-19T12:42:45;13.70;99.90
50804;DHT22;37205;51.434;6.756;2023-11-19T12:45:11;13.50;99.90
50804;DHT22;37205;51.434;6.756;2023-11-19T12:47:38;13.40;99.90
50804;DHT22;37205;51.434;6.756;2023-11-19T12:50:04;13.40;99.90
50804;DHT22;37205;51.434;6.756;2023-11-19T12:52:30;13.40;98.40
50804;DHT22;37205;51.434;6.756;2023-11-19T12:54:56;13.40;99.90
50804;DHT22;37205;51.434;6.756;2023-11-19T12:57:38;13.40;99.90
50804;DHT22;37205;51.434;6.756;2023-11-19T13:00:05;13.30;99.90
50804;DHT22;37205;51.434;6.756;2023-11-19T13:02:55;13.30;99.90
50804;DHT22;37205;51.434;6.756;2023-11-19T13:05:28;13.20;99.90
50804;DHT22;37205;51.434;6.756;2023-11-19T13:08:02;13.20;99.90
50804;DHT22;37205;51.434;6.756;2023-11-19T13:10:30;13.30;99.90
50804;DHT22;37205;51.434;6.756;2023-11-19T13:13:08;13.20;99.90
50804;DHT22;37205;51.434;6.756;2023-11-19T13:15:34;13.10;99.90
50804;DHT22;37205;51.434;6.756;2023-11-19T13:18:01;13.20;99.90
50804;DHT22;37205;51.434;6.756;2023-11-19T13:20:27;13.20;99.90
50804;DHT22;37205;51.434;6.756;2023-11-19T13:23:01;13.10;99.90
50804;DHT22;37205;51.434;6.756;2023-11-19T13:25:27;13.00;99.90
50804;DHT22;37205;51.434;6.756;2023-11-19T13:27:53;13.00;99.90
50804;DHT22;37205;51.434;6.756;2023-11-19T13:30:19;12.90;99.90
50804;DHT22;37205;51.434;6.756;2023-11-19T13:32:45;12.90;99.90
50804;DHT22;37205;51.434;6.756;2023-11-19T13:35:31;13.00;99.90
50804;DHT22;37205;51.434;6.756;2023-11-19T13:37:57;13.10;99.90
50804;DHT22;37205;51.434;6.756;2023-11-19T13:40:23;13.00;99.90
50804;DHT22;37205;51.434;6.756;2023-11-19T13:42:50;13.10;99.90
50804;DHT22;37205;51.434;6.756;2023-11-19T13:45:15;13.10;99.90
50804;DHT22;37205;51.434;6.756;2023-11-19T13:47:45;13.20;99.90
50804;DHT22;37205;51.434;6.756;2023-11-19T13:50:13;13.20;99.90
50804;DHT22;37205;51.434;6.756;2023-11-19T13:52:42;13.20;99.90
50804;DHT22;37205;51.434;6.756;2023-11-19T13:55:10;13.10;99.90
50804;DHT22;37205;51.434;6.756;2023-11-19T13:57:36;13.10;99.90
50804;DHT22;37205;51.434;6.756;2023-11-19T14:00:03;13.10;99.90
50804;DHT22;37205;51.434;6.756;2023-11-19T14:02:36;13.10;99.90
50804;DHT22;37205;51.434;6.756;2023-11-19T14:05:02;13.00;99.90
50804;DHT22;37205;51.434;6.756;2023-11-19T14:07:27;13.10;99.90
50804;DHT22;37205;51.434;6.756;2023-11-19T14:09:53;13.10;99.90
50804;DHT22;37205;51.434;6.756;2023-11-19T14:12:19;13.00;99.90
50804;DHT22;37205;51.434;6.756;2023-11-19T14:14:45;12.90;99.90
50804;DHT22;37205;51.434;6.756;2023-11-19T14:17:11;12.80;99.90
50804;DHT22;37205;51.434;6.756;2023-11-19T14:19:37;12.70;99.90
50804;DHT22;37205;51.434;6.756;2023-11-19T14:22:04;12.60;99.90
50804;DHT22;37205;51.434;6.756;2023-11-19T14:24:30;12.60;99.90
50804;DHT22;37205;51.434;6.756;2023-11-19T14:26:56;12.70;99.90
50804;DHT22;37205;51.434;6.756;2023-11-19T14:29:24;12.80;99.90
50804;DHT22;37205;51.434;6.756;2023-11-19T14:31:51;12.80;99.90
50804;DHT22;37205;51.434;6.756;2023-11-19T14:34:17;12.90;99.90
50804;DHT22;37205;51.434;6.756;2023-11-19T14:36:42;12.80;99.90
50804;DHT22;37205;51.434;6.756;2023-11-19T14:39:08;12.80;99.90
50804;DHT22;37205;51.434;6.756;2023-11-19T14:41:33;12.80;99.90
50804;DHT22;37205;51.434;6.756;2023-11-19T14:43:59;12.90;99.90
50804;DHT22;37205;51.434;6.756;2023-11-19T14:46:24;12.80;99.90
50804;DHT22;37205;51.434;6.756;2023-11-19T14:48:50;12.70;99.90
50804;DHT22;37205;51.434;6.756;2023-11-19T14:51:16;12.50;99.90
50804;DHT22;37205;51.434;6.756;2023-11-19T14:53:42;12.40;99.90
50804;DHT22;37205;51.434;6.756;2023-11-19T14:56:10;12.30;99.90
50804;DHT22;37205;51.434;6.756;2023-11-19T14:58:38;12.40;99.90
50804;DHT22;37205;51.434;6.756;2023-11-19T15:01:03;12.40;99.90
50804;DHT22;37205;51.434;6.756;2023-11-19T15:03:30;12.40;99.90
50804;DHT22;37205;51.434;6.756;2023-11-19T15:05:56;12.40;99.90
50804;DHT22;37205;51.434;6.756;2023-11-19T15:08:21;12.30;99.90
50804;DHT22;37205;51.434;6.756;2023-11-19T15:10:47;12.30;99.90
50804;DHT22;37205;51.434;6.756;2023-11-19T15:13:13;12.30;99.90
50804;DHT22;37205;51.434;6.756;2023-11-19T15:15:38;12.30;99.90
50804;DHT22;37205;51.434;6.756;2023-11-19T15:18:04;12.30;99.90
50804;DHT22;37205;51.434;6.756;2023-11-19T15:20:30;12.20;99.90
50804;DHT22;37205;51.434;6.756;2023-11-19T15:22:57;12.10;99.90
50804;DHT22;37205;51.434;6.756;2023-11-19T15:25:22;12.10;99.90
50804;DHT22;37205;51.434;6.756;2023-11-19T15:27:48;12.10;99.90
50804;DHT22;37205;51.434;6.756;2023-11-19T15:30:14;12.10;99.90
50804;DHT22;37205;51.434;6.756;2023-11-19T15:32:41;12.00;99.90
50804;DHT22;37205;51.434;6.756;2023-11-19T15:35:08;12.00;99.90
50804;DHT22;37205;51.434;6.756;2023-11-19T15:37:34;12.00;99.90
50804;DHT22;37205;51.434;6.756;2023-11-19T15:40:00;12.00;99.90
50804;DHT22;37205;51.434;6.756;2023-11-19T15:42:26;12.00;99.90
50804;DHT22;37205;51.434;6.756;2023-11-19T15:44:51;12.00;99.90
50804;DHT22;37205;51.434;6.756;2023-11-19T15:47:17;12.00;99.90
50804;DHT22;37205;51.434;6.756;2023-11-19T15:49:42;12.00;99.90
50804;DHT22;37205;51.434;6.756;2023-11-19T15:52:08;12.00;99.90
50804;DHT22;37205;51.434;6.756;2023-11-19T15:54:34;12.00;99.90